sensor_id;sensor_type;location;lat;lon;timestamp;P1;durP1;ratioP1;P2;durP2;ratioP2
7426;SDS011;3755;59.316;18.092;2023-07-22T00:00:52;2.58;;;0.80;;
7426;SDS011;3755;59.316;18.092;2023-07-22T00:03:19;2.90;;;1.20;;
7426;SDS011;3755;59.316;18.092;2023-07-22T00:05:48;2.55;;;1.30;;
7426;SDS011;3755;59.316;18.092;2023-07-22T00:08:15;1.88;;;0.93;;
7426;SDS011;3755;59.316;18.092;2023-07-22T00:10:42;2.85;;;1.10;;
7426;SDS011;3755;59.316;18.092;2023-07-22T00:13:11;4.82;;;1.38;;
7426;SDS011;3755;59.316;18.092;2023-07-22T00:15:38;1.33;;;1.00;;
7426;SDS011;3755;59.316;18.092;2023-07-22T00:18:05;2.13;;;0.82;;
7426;SDS011;3755;59.316;18.092;2023-07-22T00:20:32;1.60;;;1.00;;
7426;SDS011;3755;59.316;18.092;2023-07-22T00:22:59;3.67;;;0.95;;
7426;SDS011;3755;59.316;18.092;2023-07-22T00:25:26;4.60;;;1.25;;
7426;SDS011;3755;59.316;18.092;2023-07-22T00:27:53;3.15;;;1.20;;
7426;SDS011;3755;59.316;18.092;2023-07-22T00:30:23;4.22;;;1.15;;
7426;SDS011;3755;59.316;18.092;2023-07-22T00:32:51;2.22;;;0.90;;
7426;SDS011;3755;59.316;18.092;2023-07-22T00:35:18;1.50;;;1.02;;
7426;SDS011;3755;59.316;18.092;2023-07-22T00:37:45;8.30;;;1.20;;
7426;SDS011;3755;59.316;18.092;2023-07-22T00:40:12;3.45;;;1.30;;
7426;SDS011;3755;59.316;18.092;2023-07-22T00:42:40;2.35;;;1.10;;
7426;SDS011;3755;59.316;18.092;2023-07-22T00:45:08;2.30;;;1.08;;
7426;SDS011;3755;59.316;18.092;2023-07-22T00:47:37;5.53;;;1.08;;
7426;SDS011;3755;59.316;18.092;2023-07-22T00:50:06;3.75;;;1.10;;
7426;SDS011;3755;59.316;18.092;2023-07-22T00:52:34;3.05;;;1.15;;
7426;SDS011;3755;59.316;18.092;2023-07-22T00:55:01;7.60;;;1.73;;
7426;SDS011;3755;59.316;18.092;2023-07-22T00:57:29;6.00;;;1.35;;
7426;SDS011;3755;59.316;18.092;2023-07-22T00:59:56;5.45;;;1.00;;
7426;SDS011;3755;59.316;18.092;2023-07-22T01:02:23;3.35;;;1.30;;
7426;SDS011;3755;59.316;18.092;2023-07-22T01:04:52;3.05;;;1.05;;
7426;SDS011;3755;59.316;18.092;2023-07-22T01:07:19;5.60;;;1.45;;
7426;SDS011;3755;59.316;18.092;2023-07-22T01:09:46;3.83;;;1.20;;
7426;SDS011;3755;59.316;18.092;2023-07-22T01:12:14;2.15;;;1.02;;
7426;SDS011;3755;59.316;18.092;2023-07-22T01:14:41;2.20;;;1.00;;
7426;SDS011;3755;59.316;18.092;2023-07-22T01:17:09;3.10;;;1.10;;
7426;SDS011;3755;59.316;18.092;2023-07-22T01:19:38;4.22;;;1.13;;
7426;SDS011;3755;59.316;18.092;2023-07-22T01:22:07;2.75;;;0.85;;
7426;SDS011;3755;59.316;18.092;2023-07-22T01:24:35;2.42;;;1.10;;
7426;SDS011;3755;59.316;18.092;2023-07-22T01:27:02;4.10;;;1.45;;
7426;SDS011;3755;59.316;18.092;2023-07-22T01:29:33;1.63;;;1.17;;
7426;SDS011;3755;59.316;18.092;2023-07-22T01:32:00;3.50;;;1.45;;
7426;SDS011;3755;59.316;18.092;2023-07-22T01:34:28;3.15;;;1.52;;
7426;SDS011;3755;59.316;18.092;2023-07-22T01:36:56;1.73;;;1.30;;
7426;SDS011;3755;59.316;18.092;2023-07-22T01:39:25;4.15;;;1.23;;
7426;SDS011;3755;59.316;18.092;2023-07-22T01:41:54;4.85;;;1.13;;
7426;SDS011;3755;59.316;18.092;2023-07-22T01:44:21;2.58;;;0.93;;
7426;SDS011;3755;59.316;18.092;2023-07-22T01:46:48;2.92;;;1.20;;
7426;SDS011;3755;59.316;18.092;2023-07-22T01:49:15;1.85;;;1.15;;
7426;SDS011;3755;59.316;18.092;2023-07-22T01:51:42;3.92;;;1.00;;
7426;SDS011;3755;59.316;18.092;2023-07-22T01:54:10;4.15;;;1.20;;
7426;SDS011;3755;59.316;18.092;2023-07-22T01:56:38;2.50;;;1.00;;
7426;SDS011;3755;59.316;18.092;2023-07-22T01:59:07;5.30;;;1.20;;
7426;SDS011;3755;59.316;18.092;2023-07-22T02:01:34;4.35;;;1.08;;
7426;SDS011;3755;59.316;18.092;2023-07-22T02:04:01;3.78;;;1.10;;
7426;SDS011;3755;59.316;18.092;2023-07-22T02:06:29;1.33;;;0.93;;
7426;SDS011;3755;59.316;18.092;2023-07-22T02:08:56;4.68;;;1.08;;
7426;SDS011;3755;59.316;18.092;2023-07-22T02:11:24;2.20;;;0.95;;
7426;SDS011;3755;59.316;18.092;2023-07-22T02:13:51;2.25;;;0.82;;
7426;SDS011;3755;59.316;18.092;2023-07-22T02:16:19;3.28;;;0.90;;
7426;SDS011;3755;59.316;18.092;2023-07-22T02:18:46;1.73;;;0.95;;
7426;SDS011;3755;59.316;18.092;2023-07-22T02:21:13;3.95;;;1.38;;
7426;SDS011;3755;59.316;18.092;2023-07-22T02:23:40;4.88;;;1.20;;
7426;SDS011;3755;59.316;18.092;2023-07-22T02:26:08;3.28;;;1.00;;
7426;SDS011;3755;59.316;18.092;2023-07-22T02:28:35;4.28;;;1.70;;
7426;SDS011;3755;59.316;18.092;2023-07-22T02:31:03;1.45;;;0.82;;
7426;SDS011;3755;59.316;18.092;2023-07-22T02:33:33;2.92;;;1.08;;
7426;SDS011;3755;59.316;18.092;2023-07-22T02:36:00;4.63;;;1.58;;
7426;SDS011;3755;59.316;18.092;2023-07-22T02:38:27;4.80;;;1.30;;
7426;SDS011;3755;59.316;18.092;2023-07-22T02:40:55;8.13;;;2.70;;
7426;SDS011;3755;59.316;18.092;2023-07-22T02:43:28;4.43;;;1.35;;
7426;SDS011;3755;59.316;18.092;2023-07-22T02:45:55;3.33;;;1.17;;
7426;SDS011;3755;59.316;18.092;2023-07-22T02:48:22;2.05;;;1.27;;
7426;SDS011;3755;59.316;18.092;2023-07-22T02:50:51;2.05;;;0.93;;
7426;SDS011;3755;59.316;18.092;2023-07-22T02:53:18;3.55;;;1.23;;
7426;SDS011;3755;59.316;18.092;2023-07-22T02:55:45;1.92;;;1.15;;
7426;SDS011;3755;59.316;18.092;2023-07-22T02:58:13;4.15;;;1.17;;
7426;SDS011;3755;59.316;18.092;2023-07-22T03:00:40;2.22;;;1.05;;
7426;SDS011;3755;59.316;18.092;2023-07-22T03:03:08;5.32;;;1.10;;
7426;SDS011;3755;59.316;18.092;2023-07-22T03:05:36;4.85;;;1.10;;
7426;SDS011;3755;59.316;18.092;2023-07-22T03:08:04;3.05;;;1.30;;
7426;SDS011;3755;59.316;18.092;2023-07-22T03:10:32;2.17;;;1.08;;
7426;SDS011;3755;59.316;18.092;2023-07-22T03:12:59;1.42;;;1.20;;
7426;SDS011;3755;59.316;18.092;2023-07-22T03:15:28;1.55;;;0.98;;
7426;SDS011;3755;59.316;18.092;2023-07-22T03:17:56;1.83;;;0.90;;
7426;SDS011;3755;59.316;18.092;2023-07-22T03:20:24;2.50;;;1.05;;
7426;SDS011;3755;59.316;18.092;2023-07-22T03:22:51;3.75;;;1.13;;
7426;SDS011;3755;59.316;18.092;2023-07-22T03:25:21;3.58;;;1.30;;
7426;SDS011;3755;59.316;18.092;2023-07-22T03:27:48;2.90;;;0.93;;
7426;SDS011;3755;59.316;18.092;2023-07-22T03:30:16;2.17;;;1.10;;
7426;SDS011;3755;59.316;18.092;2023-07-22T03:32:44;1.60;;;0.90;;
7426;SDS011;3755;59.316;18.092;2023-07-22T03:35:14;4.00;;;1.02;;
7426;SDS011;3755;59.316;18.092;2023-07-22T03:37:41;2.00;;;0.93;;
7426;SDS011;3755;59.316;18.092;2023-07-22T03:40:09;2.08;;;1.00;;
7426;SDS011;3755;59.316;18.092;2023-07-22T03:42:44;3.55;;;1.02;;
7426;SDS011;3755;59.316;18.092;2023-07-22T03:45:11;2.40;;;0.90;;
7426;SDS011;3755;59.316;18.092;2023-07-22T03:47:38;5.13;;;1.30;;
7426;SDS011;3755;59.316;18.092;2023-07-22T03:50:06;2.28;;;1.00;;
7426;SDS011;3755;59.316;18.092;2023-07-22T03:52:34;1.67;;;1.00;;
7426;SDS011;3755;59.316;18.092;2023-07-22T03:55:01;1.90;;;0.93;;
7426;SDS011;3755;59.316;18.092;2023-07-22T03:57:28;4.07;;;0.90;;
7426;SDS011;3755;59.316;18.092;2023-07-22T03:59:57;1.45;;;0.90;;
7426;SDS011;3755;59.316;18.092;2023-07-22T04:02:24;3.53;;;0.90;;
7426;SDS011;3755;59.316;18.092;2023-07-22T04:04:53;2.97;;;1.25;;
7426;SDS011;3755;59.316;18.092;2023-07-22T04:07:21;3.53;;;1.88;;
7426;SDS011;3755;59.316;18.092;2023-07-22T04:09:48;3.22;;;0.98;;
7426;SDS011;3755;59.316;18.092;2023-07-22T04:12:15;3.60;;;0.90;;
7426;SDS011;3755;59.316;18.092;2023-07-22T04:14:42;2.05;;;0.90;;
7426;SDS011;3755;59.316;18.092;2023-07-22T04:17:11;2.40;;;0.70;;
7426;SDS011;3755;59.316;18.092;2023-07-22T04:19:40;2.92;;;0.90;;
7426;SDS011;3755;59.316;18.092;2023-07-22T04:22:08;3.53;;;1.27;;
7426;SDS011;3755;59.316;18.092;2023-07-22T04:24:35;3.88;;;1.10;;
7426;SDS011;3755;59.316;18.092;2023-07-22T04:27:02;2.00;;;0.98;;
7426;SDS011;3755;59.316;18.092;2023-07-22T04:29:30;2.33;;;0.60;;
7426;SDS011;3755;59.316;18.092;2023-07-22T04:31:58;3.00;;;0.82;;
7426;SDS011;3755;59.316;18.092;2023-07-22T04:34:29;2.40;;;1.00;;
7426;SDS011;3755;59.316;18.092;2023-07-22T04:36:56;5.10;;;1.08;;
7426;SDS011;3755;59.316;18.092;2023-07-22T04:39:24;4.38;;;1.25;;
7426;SDS011;3755;59.316;18.092;2023-07-22T04:41:51;3.85;;;1.05;;
7426;SDS011;3755;59.316;18.092;2023-07-22T04:44:18;2.00;;;0.88;;
7426;SDS011;3755;59.316;18.092;2023-07-22T04:46:46;4.18;;;1.00;;
7426;SDS011;3755;59.316;18.092;2023-07-22T04:49:13;3.03;;;0.90;;
7426;SDS011;3755;59.316;18.092;2023-07-22T04:51:44;3.65;;;1.35;;
7426;SDS011;3755;59.316;18.092;2023-07-22T04:54:11;4.32;;;0.90;;
7426;SDS011;3755;59.316;18.092;2023-07-22T04:56:39;7.55;;;1.15;;
7426;SDS011;3755;59.316;18.092;2023-07-22T04:59:07;2.67;;;0.75;;
7426;SDS011;3755;59.316;18.092;2023-07-22T05:01:34;1.65;;;0.70;;
7426;SDS011;3755;59.316;18.092;2023-07-22T05:04:02;1.75;;;0.80;;
7426;SDS011;3755;59.316;18.092;2023-07-22T05:06:30;5.07;;;1.00;;
7426;SDS011;3755;59.316;18.092;2023-07-22T05:08:58;4.70;;;1.25;;
7426;SDS011;3755;59.316;18.092;2023-07-22T05:11:25;2.00;;;0.82;;
7426;SDS011;3755;59.316;18.092;2023-07-22T05:13:53;8.60;;;1.33;;
7426;SDS011;3755;59.316;18.092;2023-07-22T05:16:20;1.40;;;0.70;;
7426;SDS011;3755;59.316;18.092;2023-07-22T05:18:47;3.08;;;0.93;;
7426;SDS011;3755;59.316;18.092;2023-07-22T05:21:14;3.20;;;0.98;;
7426;SDS011;3755;59.316;18.092;2023-07-22T05:23:41;3.13;;;0.93;;
7426;SDS011;3755;59.316;18.092;2023-07-22T05:26:10;2.60;;;1.08;;
7426;SDS011;3755;59.316;18.092;2023-07-22T05:28:37;5.78;;;1.13;;
7426;SDS011;3755;59.316;18.092;2023-07-22T05:31:04;3.55;;;1.00;;
7426;SDS011;3755;59.316;18.092;2023-07-22T05:33:31;3.65;;;0.93;;
7426;SDS011;3755;59.316;18.092;2023-07-22T05:35:58;2.78;;;0.95;;
7426;SDS011;3755;59.316;18.092;2023-07-22T05:38:26;2.00;;;0.90;;
7426;SDS011;3755;59.316;18.092;2023-07-22T05:40:53;2.03;;;0.80;;
7426;SDS011;3755;59.316;18.092;2023-07-22T05:43:21;2.50;;;1.02;;
7426;SDS011;3755;59.316;18.092;2023-07-22T05:45:49;5.07;;;1.50;;
7426;SDS011;3755;59.316;18.092;2023-07-22T05:48:16;2.28;;;0.80;;
7426;SDS011;3755;59.316;18.092;2023-07-22T05:50:43;3.15;;;0.82;;
7426;SDS011;3755;59.316;18.092;2023-07-22T05:53:10;6.22;;;1.20;;
7426;SDS011;3755;59.316;18.092;2023-07-22T05:55:38;2.65;;;0.82;;
7426;SDS011;3755;59.316;18.092;2023-07-22T05:58:05;3.88;;;0.90;;
7426;SDS011;3755;59.316;18.092;2023-07-22T06:00:34;3.75;;;1.10;;
7426;SDS011;3755;59.316;18.092;2023-07-22T06:03:02;8.00;;;1.50;;
7426;SDS011;3755;59.316;18.092;2023-07-22T06:05:30;1.95;;;0.90;;
7426;SDS011;3755;59.316;18.092;2023-07-22T06:07:57;4.25;;;1.60;;
7426;SDS011;3755;59.316;18.092;2023-07-22T06:10:24;7.60;;;1.25;;
7426;SDS011;3755;59.316;18.092;2023-07-22T06:12:51;3.22;;;0.88;;
7426;SDS011;3755;59.316;18.092;2023-07-22T06:15:18;2.25;;;1.02;;
7426;SDS011;3755;59.316;18.092;2023-07-22T06:17:47;5.55;;;1.23;;
7426;SDS011;3755;59.316;18.092;2023-07-22T06:20:14;4.47;;;1.08;;
7426;SDS011;3755;59.316;18.092;2023-07-22T06:22:41;2.53;;;0.80;;
7426;SDS011;3755;59.316;18.092;2023-07-22T06:25:08;3.42;;;1.00;;
7426;SDS011;3755;59.316;18.092;2023-07-22T06:27:35;2.35;;;1.00;;
7426;SDS011;3755;59.316;18.092;2023-07-22T06:30:05;2.25;;;1.00;;
7426;SDS011;3755;59.316;18.092;2023-07-22T06:32:33;6.18;;;1.30;;
7426;SDS011;3755;59.316;18.092;2023-07-22T06:35:03;2.42;;;1.30;;
7426;SDS011;3755;59.316;18.092;2023-07-22T06:37:31;1.80;;;0.90;;
7426;SDS011;3755;59.316;18.092;2023-07-22T06:39:59;4.03;;;0.90;;
7426;SDS011;3755;59.316;18.092;2023-07-22T06:42:27;3.55;;;1.00;;
7426;SDS011;3755;59.316;18.092;2023-07-22T06:44:54;4.68;;;1.13;;
7426;SDS011;3755;59.316;18.092;2023-07-22T06:47:21;4.25;;;1.33;;
7426;SDS011;3755;59.316;18.092;2023-07-22T06:49:48;6.18;;;1.10;;
7426;SDS011;3755;59.316;18.092;2023-07-22T06:52:17;3.75;;;1.20;;
7426;SDS011;3755;59.316;18.092;2023-07-22T06:54:44;4.60;;;1.38;;
7426;SDS011;3755;59.316;18.092;2023-07-22T06:57:11;3.38;;;1.02;;
7426;SDS011;3755;59.316;18.092;2023-07-22T06:59:38;2.67;;;1.15;;
7426;SDS011;3755;59.316;18.092;2023-07-22T07:02:05;3.28;;;1.00;;
7426;SDS011;3755;59.316;18.092;2023-07-22T07:04:32;1.95;;;0.80;;
7426;SDS011;3755;59.316;18.092;2023-07-22T07:07:00;3.10;;;1.15;;
7426;SDS011;3755;59.316;18.092;2023-07-22T07:09:29;2.67;;;0.75;;
7426;SDS011;3755;59.316;18.092;2023-07-22T07:11:56;3.85;;;1.00;;
7426;SDS011;3755;59.316;18.092;2023-07-22T07:14:23;6.00;;;0.95;;
7426;SDS011;3755;59.316;18.092;2023-07-22T07:16:51;4.07;;;1.00;;
7426;SDS011;3755;59.316;18.092;2023-07-22T07:19:18;1.48;;;0.80;;
7426;SDS011;3755;59.316;18.092;2023-07-22T07:21:45;2.28;;;0.80;;
7426;SDS011;3755;59.316;18.092;2023-07-22T07:24:12;3.67;;;0.95;;
7426;SDS011;3755;59.316;18.092;2023-07-22T07:26:41;3.72;;;0.88;;
7426;SDS011;3755;59.316;18.092;2023-07-22T07:29:08;1.38;;;0.57;;
7426;SDS011;3755;59.316;18.092;2023-07-22T07:31:35;4.03;;;0.90;;
7426;SDS011;3755;59.316;18.092;2023-07-22T07:34:03;5.30;;;1.20;;
7426;SDS011;3755;59.316;18.092;2023-07-22T07:36:31;2.25;;;0.90;;
7426;SDS011;3755;59.316;18.092;2023-07-22T07:38:58;4.75;;;1.00;;
7426;SDS011;3755;59.316;18.092;2023-07-22T07:41:26;2.65;;;1.38;;
7426;SDS011;3755;59.316;18.092;2023-07-22T07:43:54;3.85;;;1.02;;
7426;SDS011;3755;59.316;18.092;2023-07-22T07:46:22;1.80;;;0.88;;
7426;SDS011;3755;59.316;18.092;2023-07-22T07:48:51;2.42;;;0.70;;
7426;SDS011;3755;59.316;18.092;2023-07-22T07:51:19;2.05;;;0.82;;
7426;SDS011;3755;59.316;18.092;2023-07-22T07:53:47;3.47;;;0.70;;
7426;SDS011;3755;59.316;18.092;2023-07-22T07:56:16;1.30;;;0.80;;
7426;SDS011;3755;59.316;18.092;2023-07-22T07:58:44;0.68;;;0.50;;
7426;SDS011;3755;59.316;18.092;2023-07-22T08:01:13;2.40;;;0.70;;
7426;SDS011;3755;59.316;18.092;2023-07-22T08:03:42;1.40;;;0.70;;
7426;SDS011;3755;59.316;18.092;2023-07-22T08:06:09;2.88;;;1.08;;
7426;SDS011;3755;59.316;18.092;2023-07-22T08:08:37;2.33;;;0.88;;
7426;SDS011;3755;59.316;18.092;2023-07-22T08:11:06;1.77;;;0.80;;
7426;SDS011;3755;59.316;18.092;2023-07-22T08:13:34;4.13;;;1.20;;
7426;SDS011;3755;59.316;18.092;2023-07-22T08:16:02;1.73;;;0.77;;
7426;SDS011;3755;59.316;18.092;2023-07-22T08:18:31;3.28;;;0.85;;
7426;SDS011;3755;59.316;18.092;2023-07-22T08:21:01;1.77;;;0.80;;
7426;SDS011;3755;59.316;18.092;2023-07-22T08:23:29;2.47;;;0.60;;
7426;SDS011;3755;59.316;18.092;2023-07-22T08:25:56;1.50;;;0.57;;
7426;SDS011;3755;59.316;18.092;2023-07-22T08:28:23;1.10;;;0.70;;
7426;SDS011;3755;59.316;18.092;2023-07-22T08:30:53;1.85;;;0.60;;
7426;SDS011;3755;59.316;18.092;2023-07-22T08:33:21;1.10;;;0.70;;
7426;SDS011;3755;59.316;18.092;2023-07-22T08:35:50;0.55;;;0.47;;
7426;SDS011;3755;59.316;18.092;2023-07-22T08:38:18;1.65;;;0.70;;
7426;SDS011;3755;59.316;18.092;2023-07-22T08:40:47;2.97;;;0.80;;
7426;SDS011;3755;59.316;18.092;2023-07-22T08:43:16;1.50;;;0.70;;
7426;SDS011;3755;59.316;18.092;2023-07-22T08:45:47;2.53;;;0.80;;
7426;SDS011;3755;59.316;18.092;2023-07-22T08:48:15;3.25;;;0.70;;
7426;SDS011;3755;59.316;18.092;2023-07-22T08:50:44;2.15;;;0.70;;
7426;SDS011;3755;59.316;18.092;2023-07-22T08:53:14;2.00;;;0.73;;
7426;SDS011;3755;59.316;18.092;2023-07-22T08:55:41;1.90;;;0.85;;
7426;SDS011;3755;59.316;18.092;2023-07-22T08:58:10;1.52;;;0.73;;
7426;SDS011;3755;59.316;18.092;2023-07-22T09:00:37;2.50;;;0.60;;
7426;SDS011;3755;59.316;18.092;2023-07-22T09:03:06;1.50;;;0.70;;
7426;SDS011;3755;59.316;18.092;2023-07-22T09:05:34;2.80;;;1.35;;
7426;SDS011;3755;59.316;18.092;2023-07-22T09:08:02;2.65;;;0.98;;
7426;SDS011;3755;59.316;18.092;2023-07-22T09:10:33;3.17;;;2.25;;
7426;SDS011;3755;59.316;18.092;2023-07-22T09:13:01;1.98;;;0.90;;
7426;SDS011;3755;59.316;18.092;2023-07-22T09:15:29;3.17;;;0.80;;
7426;SDS011;3755;59.316;18.092;2023-07-22T09:17:58;1.10;;;0.57;;
7426;SDS011;3755;59.316;18.092;2023-07-22T09:20:25;1.33;;;0.82;;
7426;SDS011;3755;59.316;18.092;2023-07-22T09:22:53;4.47;;;0.80;;
7426;SDS011;3755;59.316;18.092;2023-07-22T09:25:21;2.03;;;0.73;;
7426;SDS011;3755;59.316;18.092;2023-07-22T09:27:51;4.13;;;1.02;;
7426;SDS011;3755;59.316;18.092;2023-07-22T09:30:20;2.40;;;0.77;;
7426;SDS011;3755;59.316;18.092;2023-07-22T09:32:48;0.80;;;0.52;;
7426;SDS011;3755;59.316;18.092;2023-07-22T09:35:17;4.57;;;0.85;;
7426;SDS011;3755;59.316;18.092;2023-07-22T09:37:45;1.55;;;0.90;;
7426;SDS011;3755;59.316;18.092;2023-07-22T09:40:16;1.15;;;0.60;;
7426;SDS011;3755;59.316;18.092;2023-07-22T09:42:47;2.13;;;1.00;;
7426;SDS011;3755;59.316;18.092;2023-07-22T09:45:18;3.17;;;0.90;;
7426;SDS011;3755;59.316;18.092;2023-07-22T09:47:48;2.22;;;0.80;;
7426;SDS011;3755;59.316;18.092;2023-07-22T09:50:16;3.17;;;1.05;;
7426;SDS011;3755;59.316;18.092;2023-07-22T09:52:45;1.52;;;0.55;;
7426;SDS011;3755;59.316;18.092;2023-07-22T09:55:17;2.50;;;0.70;;
7426;SDS011;3755;59.316;18.092;2023-07-22T09:57:46;1.23;;;0.73;;
7426;SDS011;3755;59.316;18.092;2023-07-22T10:00:16;3.10;;;0.70;;
7426;SDS011;3755;59.316;18.092;2023-07-22T10:02:46;2.60;;;0.70;;
7426;SDS011;3755;59.316;18.092;2023-07-22T10:05:14;3.05;;;0.93;;
7426;SDS011;3755;59.316;18.092;2023-07-22T10:07:43;4.88;;;1.02;;
7426;SDS011;3755;59.316;18.092;2023-07-22T10:10:12;2.00;;;0.70;;
7426;SDS011;3755;59.316;18.092;2023-07-22T10:12:41;2.15;;;0.63;;
7426;SDS011;3755;59.316;18.092;2023-07-22T10:15:09;1.88;;;0.80;;
7426;SDS011;3755;59.316;18.092;2023-07-22T10:17:39;2.03;;;0.90;;
7426;SDS011;3755;59.316;18.092;2023-07-22T10:20:06;1.52;;;1.08;;
7426;SDS011;3755;59.316;18.092;2023-07-22T10:22:36;4.00;;;0.98;;
7426;SDS011;3755;59.316;18.092;2023-07-22T10:25:04;1.95;;;1.15;;
7426;SDS011;3755;59.316;18.092;2023-07-22T10:27:33;2.67;;;1.35;;
7426;SDS011;3755;59.316;18.092;2023-07-22T10:30:01;0.90;;;0.60;;
7426;SDS011;3755;59.316;18.092;2023-07-22T10:32:33;5.38;;;0.80;;
7426;SDS011;3755;59.316;18.092;2023-07-22T10:35:03;1.73;;;0.77;;
7426;SDS011;3755;59.316;18.092;2023-07-22T10:37:35;1.58;;;0.95;;
7426;SDS011;3755;59.316;18.092;2023-07-22T10:40:19;3.20;;;1.25;;
7426;SDS011;3755;59.316;18.092;2023-07-22T10:42:52;1.00;;;0.82;;
7426;SDS011;3755;59.316;18.092;2023-07-22T10:45:23;1.77;;;0.90;;
7426;SDS011;3755;59.316;18.092;2023-07-22T10:48:05;2.05;;;0.98;;
7426;SDS011;3755;59.316;18.092;2023-07-22T10:50:41;1.60;;;0.82;;
7426;SDS011;3755;59.316;18.092;2023-07-22T10:53:10;2.38;;;0.60;;
7426;SDS011;3755;59.316;18.092;2023-07-22T10:58:29;2.92;;;1.10;;
7426;SDS011;3755;59.316;18.092;2023-07-22T11:00:56;3.03;;;1.27;;
7426;SDS011;3755;59.316;18.092;2023-07-22T11:04:08;1.90;;;1.10;;
7426;SDS011;3755;59.316;18.092;2023-07-22T11:06:40;1.90;;;1.10;;
7426;SDS011;3755;59.316;18.092;2023-07-22T11:09:32;1.95;;;1.33;;
7426;SDS011;3755;59.316;18.092;2023-07-22T11:12:04;1.80;;;1.10;;
7426;SDS011;3755;59.316;18.092;2023-07-22T11:14:33;2.30;;;1.20;;
7426;SDS011;3755;59.316;18.092;2023-07-22T11:17:02;2.50;;;1.00;;
7426;SDS011;3755;59.316;18.092;2023-07-22T11:19:30;3.50;;;1.23;;
7426;SDS011;3755;59.316;18.092;2023-07-22T11:22:00;3.53;;;1.40;;
7426;SDS011;3755;59.316;18.092;2023-07-22T11:24:29;1.73;;;0.77;;
7426;SDS011;3755;59.316;18.092;2023-07-22T11:26:56;3.28;;;1.38;;
7426;SDS011;3755;59.316;18.092;2023-07-22T11:29:23;3.90;;;1.60;;
7426;SDS011;3755;59.316;18.092;2023-07-22T11:31:51;2.92;;;1.40;;
7426;SDS011;3755;59.316;18.092;2023-07-22T11:34:18;2.75;;;1.50;;
7426;SDS011;3755;59.316;18.092;2023-07-22T11:36:47;2.35;;;1.73;;
7426;SDS011;3755;59.316;18.092;2023-07-22T11:39:17;4.20;;;1.40;;
7426;SDS011;3755;59.316;18.092;2023-07-22T11:41:46;2.50;;;0.80;;
7426;SDS011;3755;59.316;18.092;2023-07-22T11:44:14;2.08;;;1.17;;
7426;SDS011;3755;59.316;18.092;2023-07-22T11:46:46;4.60;;;1.80;;
7426;SDS011;3755;59.316;18.092;2023-07-22T11:49:21;2.42;;;1.30;;
7426;SDS011;3755;59.316;18.092;2023-07-22T11:51:56;2.85;;;1.40;;
7426;SDS011;3755;59.316;18.092;2023-07-22T11:54:25;4.05;;;1.45;;
7426;SDS011;3755;59.316;18.092;2023-07-22T11:56:53;4.80;;;2.38;;
7426;SDS011;3755;59.316;18.092;2023-07-22T11:59:33;2.55;;;1.45;;
7426;SDS011;3755;59.316;18.092;2023-07-22T12:02:04;2.95;;;1.42;;
7426;SDS011;3755;59.316;18.092;2023-07-22T12:04:32;2.28;;;1.48;;
7426;SDS011;3755;59.316;18.092;2023-07-22T12:07:00;2.70;;;1.38;;
7426;SDS011;3755;59.316;18.092;2023-07-22T12:09:30;3.00;;;1.70;;
7426;SDS011;3755;59.316;18.092;2023-07-22T12:11:58;1.88;;;1.55;;
7426;SDS011;3755;59.316;18.092;2023-07-22T12:14:32;2.63;;;1.55;;
7426;SDS011;3755;59.316;18.092;2023-07-22T12:17:02;2.13;;;1.30;;
7426;SDS011;3755;59.316;18.092;2023-07-22T12:19:29;3.05;;;1.67;;
7426;SDS011;3755;59.316;18.092;2023-07-22T12:21:56;5.30;;;1.77;;
7426;SDS011;3755;59.316;18.092;2023-07-22T12:24:23;1.92;;;1.50;;
7426;SDS011;3755;59.316;18.092;2023-07-22T12:26:52;4.13;;;1.85;;
7426;SDS011;3755;59.316;18.092;2023-07-22T12:29:19;3.33;;;2.00;;
7426;SDS011;3755;59.316;18.092;2023-07-22T12:31:47;4.25;;;1.85;;
7426;SDS011;3755;59.316;18.092;2023-07-22T12:34:14;6.75;;;1.85;;
7426;SDS011;3755;59.316;18.092;2023-07-22T12:36:41;5.35;;;1.90;;
7426;SDS011;3755;59.316;18.092;2023-07-22T12:39:08;4.88;;;1.75;;
7426;SDS011;3755;59.316;18.092;2023-07-22T12:41:35;3.70;;;1.92;;
7426;SDS011;3755;59.316;18.092;2023-07-22T12:44:05;3.78;;;2.00;;
7426;SDS011;3755;59.316;18.092;2023-07-22T12:46:32;3.40;;;1.80;;
7426;SDS011;3755;59.316;18.092;2023-07-22T12:48:59;2.15;;;1.55;;
7426;SDS011;3755;59.316;18.092;2023-07-22T12:51:26;3.33;;;1.80;;
7426;SDS011;3755;59.316;18.092;2023-07-22T12:53:53;3.45;;;2.03;;
7426;SDS011;3755;59.316;18.092;2023-07-22T12:56:21;2.53;;;1.83;;
7426;SDS011;3755;59.316;18.092;2023-07-22T12:58:48;3.25;;;2.08;;
7426;SDS011;3755;59.316;18.092;2023-07-22T13:01:17;4.38;;;2.05;;
7426;SDS011;3755;59.316;18.092;2023-07-22T13:03:44;2.72;;;1.85;;
7426;SDS011;3755;59.316;18.092;2023-07-22T13:06:11;3.63;;;1.95;;
7426;SDS011;3755;59.316;18.092;2023-07-22T13:08:38;4.13;;;2.33;;
7426;SDS011;3755;59.316;18.092;2023-07-22T13:11:05;4.35;;;2.10;;
7426;SDS011;3755;59.316;18.092;2023-07-22T13:13:33;3.40;;;1.98;;
7426;SDS011;3755;59.316;18.092;2023-07-22T13:16:00;3.78;;;1.92;;
7426;SDS011;3755;59.316;18.092;2023-07-22T13:18:28;4.65;;;2.63;;
7426;SDS011;3755;59.316;18.092;2023-07-22T13:20:55;3.28;;;2.20;;
7426;SDS011;3755;59.316;18.092;2023-07-22T13:23:23;3.42;;;2.20;;
7426;SDS011;3755;59.316;18.092;2023-07-22T13:25:50;5.45;;;2.25;;
7426;SDS011;3755;59.316;18.092;2023-07-22T13:28:17;3.75;;;2.53;;
7426;SDS011;3755;59.316;18.092;2023-07-22T13:30:44;4.82;;;2.35;;
7426;SDS011;3755;59.316;18.092;2023-07-22T13:33:11;3.72;;;2.33;;
7426;SDS011;3755;59.316;18.092;2023-07-22T13:35:40;3.50;;;2.47;;
7426;SDS011;3755;59.316;18.092;2023-07-22T13:38:07;4.22;;;2.22;;
7426;SDS011;3755;59.316;18.092;2023-07-22T13:40:34;4.15;;;2.35;;
7426;SDS011;3755;59.316;18.092;2023-07-22T13:43:01;4.05;;;2.30;;
7426;SDS011;3755;59.316;18.092;2023-07-22T13:45:28;3.33;;;2.15;;
7426;SDS011;3755;59.316;18.092;2023-07-22T13:47:56;2.70;;;1.83;;
7426;SDS011;3755;59.316;18.092;2023-07-22T13:50:23;2.90;;;2.30;;
7426;SDS011;3755;59.316;18.092;2023-07-22T13:52:51;3.67;;;2.05;;
7426;SDS011;3755;59.316;18.092;2023-07-22T13:55:19;5.70;;;2.45;;
7426;SDS011;3755;59.316;18.092;2023-07-22T13:57:46;4.40;;;3.15;;
7426;SDS011;3755;59.316;18.092;2023-07-22T14:00:13;3.83;;;2.20;;
7426;SDS011;3755;59.316;18.092;2023-07-22T14:02:41;3.08;;;2.15;;
7426;SDS011;3755;59.316;18.092;2023-07-22T14:05:08;4.97;;;1.88;;
7426;SDS011;3755;59.316;18.092;2023-07-22T14:07:35;5.55;;;2.05;;
7426;SDS011;3755;59.316;18.092;2023-07-22T14:10:05;2.83;;;1.98;;
7426;SDS011;3755;59.316;18.092;2023-07-22T14:12:34;3.85;;;2.08;;
7426;SDS011;3755;59.316;18.092;2023-07-22T14:15:01;3.08;;;1.98;;
7426;SDS011;3755;59.316;18.092;2023-07-22T14:17:31;3.67;;;2.25;;
7426;SDS011;3755;59.316;18.092;2023-07-22T14:19:58;5.50;;;2.20;;
7426;SDS011;3755;59.316;18.092;2023-07-22T14:22:25;3.55;;;2.33;;
7426;SDS011;3755;59.316;18.092;2023-07-22T14:24:53;4.07;;;2.00;;
7426;SDS011;3755;59.316;18.092;2023-07-22T14:27:21;5.85;;;2.40;;
7426;SDS011;3755;59.316;18.092;2023-07-22T14:29:48;2.95;;;2.15;;
7426;SDS011;3755;59.316;18.092;2023-07-22T14:32:16;3.03;;;2.20;;
7426;SDS011;3755;59.316;18.092;2023-07-22T14:34:43;5.35;;;2.78;;
7426;SDS011;3755;59.316;18.092;2023-07-22T14:37:10;3.38;;;2.58;;
7426;SDS011;3755;59.316;18.092;2023-07-22T14:39:37;5.50;;;2.13;;
7426;SDS011;3755;59.316;18.092;2023-07-22T14:42:05;4.97;;;2.28;;
7426;SDS011;3755;59.316;18.092;2023-07-22T14:44:34;5.65;;;2.35;;
7426;SDS011;3755;59.316;18.092;2023-07-22T14:47:01;5.63;;;2.83;;
7426;SDS011;3755;59.316;18.092;2023-07-22T14:49:28;2.38;;;2.10;;
7426;SDS011;3755;59.316;18.092;2023-07-22T14:51:56;4.53;;;2.72;;
7426;SDS011;3755;59.316;18.092;2023-07-22T14:54:23;4.93;;;2.67;;
7426;SDS011;3755;59.316;18.092;2023-07-22T14:56:50;4.13;;;2.35;;
7426;SDS011;3755;59.316;18.092;2023-07-22T14:59:17;4.40;;;2.28;;
7426;SDS011;3755;59.316;18.092;2023-07-22T15:01:46;6.97;;;3.05;;
7426;SDS011;3755;59.316;18.092;2023-07-22T15:04:13;2.80;;;2.03;;
7426;SDS011;3755;59.316;18.092;2023-07-22T15:06:40;3.50;;;2.20;;
7426;SDS011;3755;59.316;18.092;2023-07-22T15:09:07;6.63;;;2.72;;